United States

Ashburn, VA Weather Archive

Below you will find the last 24 hours of weather readings for Ashburn VA

Ashburn VA Today's Weather Data

Observed at: Ashburn, VA

Hour Observerd Temp Pressure Visibility Humidity Dew Point Wind
23:00 Overcast 59°F (15°C) 100.95 kPa 10 miles 53% 41.9°F (5.5°C) 1 mph WNW 295°2 mph
22:00 Partly Cloudy 60°F (15.6°C) 100.91 kPa 10 miles 53% 42.8°F (6°C) 1 mph WNW 293°2 mph
21:00 Partly Cloudy 63°F (17.2°C) 100.85 kPa 10 miles 51% 44.6°F (7°C) 2 mph WNW 283°5 mph
20:00 Overcast and Breezy 66°F (18.9°C) 100.78 kPa 10 miles 44% 43.4°F (6.4°C) 2 mph WNW 288°9 mph
19:00 Overcast and Breezy 69°F (20.6°C) 100.78 kPa 10 miles 41% 44.3°F (6.8°C) 1 mph WNW 299°4 mph
18:00 Mostly Cloudy 70°F (21.1°C) 100.54 kPa 10 miles 39% 43.9°F (6.6°C) 2 mph WNW 292°6 mph
17:00 Overcast 74°F (23.3°C) 100.47 kPa 10 miles 38% 46.8°F (8.2°C) 1 mph WSW 250°8 mph
16:00 Mostly Cloudy 73°F (22.8°C) 100.37 kPa 10 miles 39% 46.6°F (8.1°C) 2 mph WNW 293°6 mph
15:00 Partly Cloudy 73°F (22.8°C) 100.37 kPa 10 miles 42% 48.5°F (9.2°C) 3 mph WNW 292°9 mph
14:00 Fair 73°F (22.8°C) 100.37 kPa 10 miles 49% 52.7°F (11.5°C) 2 mph WNW 290°7 mph
13:00 Fair 72°F (22.2°C) 100.37 kPa 10 miles 54% 54.4°F (12.5°C) 1 mph WNW 294°3 mph
12:00 Fair 68°F (20°C) 100.37 kPa 10 miles 66% 56.2°F (13.5°C) 1 mph WNW 300°3 mph
11:00 Fair 67°F (19.4°C) 100.34 kPa 10 miles 71% 57.3°F (14°C) 1 mph WNW 286°3 mph
10:00 Partly Cloudy 68°F (20°C) 100.24 kPa 10 miles 78% 60.9°F (16°C) 3 mph SE 131°11 mph
09:00 Overcast 66°F (18.9°C) 100.2 kPa 10 miles 92% 63.6°F (17.6°C) 3 mph SE 124°9 mph
08:00 Overcast 64°F (17.8°C) 100.14 kPa 10 miles 95% 62.5°F (17°C) 3 mph WSW 245°7 mph
07:00 Overcast 65°F (18.3°C) 100.14 kPa 10 miles 93% 62.9°F (17.2°C) 1 mph SE 141°8 mph
06:00 Overcast 65°F (18.3°C) 100.1 kPa 10 miles 93% 62.9°F (17.2°C) 2 mph SE 129°6 mph
05:00 Overcast 65°F (18.3°C) 100.1 kPa 10 miles 93% 62.9°F (17.2°C) 1 mph ESE 121°7 mph
04:00 Overcast 65°F (18.3°C) 100.14 kPa 10 miles 94% 63.2°F (17.4°C) 1 mph WSW 252°6 mph
03:00 Overcast 65°F (18.3°C) 100.2 kPa 10 miles 95% 63.5°F (17.5°C) 1 mph SE 130°8 mph
02:00 Overcast 66°F (18.9°C) 100.2 kPa 10 miles 93% 63.9°F (17.7°C) 2 mph SE 127°12 mph
01:00 Overcast 66°F (18.9°C) 100.2 kPa 10 miles 93% 63.9°F (17.7°C) 3 mph ESE 117°10 mph
00:00 Overcast 66°F (18.9°C) 100.2 kPa 10 miles 97% 65.1°F (18.4°C) 1 mph ESE 120°5 mph